createdAt,value
2022-08-05T00:01:36.439Z,81.10
2022-08-05T00:04:18.417Z,83.50
2022-08-05T00:06:47.736Z,83.50
2022-08-05T00:09:20.662Z,83.10
2022-08-05T00:11:55.913Z,84.00
2022-08-05T00:14:29.150Z,84.20
2022-08-05T00:16:58.583Z,86.00
2022-08-05T00:19:33.745Z,86.50
2022-08-05T00:22:14.232Z,88.70
2022-08-05T00:24:46.331Z,88.60
2022-08-05T00:27:36.356Z,88.70
2022-08-05T00:30:11.557Z,89.80
2022-08-05T00:32:40.451Z,90.00
2022-08-05T00:35:10.172Z,90.90
2022-08-05T00:37:52.320Z,91.10
2022-08-05T00:43:00.768Z,91.80
2022-08-05T00:45:38.643Z,91.70
2022-08-05T00:48:09.445Z,92.20
2022-08-05T00:53:44.981Z,92.60
2022-08-05T00:56:01.286Z,93.20
2022-08-05T00:58:30.982Z,93.40
2022-08-05T01:00:59.348Z,94.50
2022-08-05T01:03:30.861Z,94.40
2022-08-05T01:06:01.804Z,95.20
2022-08-05T01:08:43.426Z,95.80
2022-08-05T01:14:08.527Z,95.90
2022-08-05T01:17:00.059Z,96.60
2022-08-05T01:20:02.025Z,96.90
2022-08-05T01:22:52.443Z,97.00
2022-08-05T01:26:01.445Z,97.60
2022-08-05T01:28:39.529Z,97.70
2022-08-05T01:33:53.538Z,97.90
2022-08-05T01:36:28.357Z,98.30
2022-08-05T01:41:36.503Z,98.90
2022-08-05T01:46:41.295Z,99.20
2022-08-05T01:49:24.101Z,99.50
2022-08-05T01:54:34.886Z,99.90
2022-08-05T01:58:10.981Z,99.90
2022-08-05T02:00:13.198Z,99.90
2022-08-05T02:02:54.382Z,99.90
2022-08-05T02:05:31.315Z,99.90
2022-08-05T02:08:03.365Z,99.90
2022-08-05T02:10:40.759Z,99.90
2022-08-05T02:13:16.899Z,99.90
2022-08-05T02:15:55.099Z,99.90
2022-08-05T02:18:34.783Z,99.90
2022-08-05T02:21:15.342Z,99.90
2022-08-05T02:23:49.008Z,99.90
2022-08-05T02:28:58.251Z,99.90
2022-08-05T02:31:34.837Z,99.90
2022-08-05T02:34:10.082Z,99.90
2022-08-05T02:36:45.236Z,99.90
2022-08-05T02:39:19.678Z,99.90
2022-08-05T02:47:03.047Z,99.90
2022-08-05T02:49:40.680Z,99.90
2022-08-05T02:52:29.919Z,99.90
2022-08-05T02:55:01.921Z,99.90
2022-08-05T02:58:10.282Z,99.90
2022-08-05T03:00:26.848Z,99.90
2022-08-05T03:02:59.899Z,99.90
2022-08-05T03:06:57.087Z,99.90
2022-08-05T03:13:50.992Z,99.90
2022-08-05T03:16:21.355Z,99.90
2022-08-05T03:18:51.243Z,99.90
2022-08-05T03:21:20.462Z,99.90
2022-08-05T03:26:31.420Z,99.90
2022-08-05T03:29:01.173Z,99.90
2022-08-05T03:31:56.839Z,99.90
2022-08-05T03:34:21.277Z,99.90
2022-08-05T03:39:27.092Z,99.90
2022-08-05T03:41:56.598Z,99.90
2022-08-05T03:44:25.127Z,99.90
2022-08-05T03:46:57.482Z,99.90
2022-08-05T03:49:31.053Z,99.90
2022-08-05T03:52:48.461Z,99.90
2022-08-05T03:56:04.087Z,99.90
2022-08-05T03:58:20.153Z,99.90
2022-08-05T04:01:00.981Z,99.90
2022-08-05T04:03:35.961Z,99.90
2022-08-05T04:06:09.307Z,99.90
2022-08-05T04:08:39.099Z,99.90
2022-08-05T04:11:10.014Z,99.90
2022-08-05T04:13:49.899Z,99.90
2022-08-05T04:16:24.267Z,99.90
2022-08-05T04:18:57.684Z,99.90
2022-08-05T04:22:08.319Z,99.90
2022-08-05T04:24:19.751Z,99.90
2022-08-05T04:26:51.411Z,99.90
2022-08-05T04:29:20.032Z,99.90
2022-08-05T04:31:49.707Z,99.90
2022-08-05T04:37:05.674Z,99.90
2022-08-05T04:39:35.255Z,99.90
2022-08-05T04:42:04.544Z,99.90
2022-08-05T04:44:32.799Z,99.90
2022-08-05T04:47:09.889Z,99.90
2022-08-05T04:50:02.816Z,99.90
2022-08-05T04:52:33.362Z,99.90
2022-08-05T04:55:03.734Z,99.90
2022-08-05T04:57:47.921Z,99.90
2022-08-05T05:00:23.622Z,99.90
2022-08-05T05:02:53.047Z,99.90
2022-08-05T05:05:28.488Z,99.90
2022-08-05T05:08:03.590Z,99.90
2022-08-05T05:10:34.282Z,99.90
2022-08-05T05:15:57.177Z,99.90
2022-08-05T05:18:31.087Z,99.90
2022-08-05T05:21:04.174Z,99.90
2022-08-05T05:24:02.126Z,99.90
2022-08-05T05:26:28.886Z,99.90
2022-08-05T05:29:02.756Z,99.90
2022-08-05T05:31:46.440Z,99.90
2022-08-05T05:34:15.437Z,99.90
2022-08-05T05:36:44.169Z,99.90
2022-08-05T05:39:16.819Z,99.90
2022-08-05T05:41:54.358Z,99.90
2022-08-05T05:44:36.678Z,99.90
2022-08-05T05:47:21.661Z,99.90
2022-08-05T05:50:01.755Z,99.70
2022-08-05T05:52:37.941Z,98.50
2022-08-05T05:55:13.998Z,98.10
2022-08-05T05:57:52.169Z,98.10
2022-08-05T06:00:31.316Z,99.10
2022-08-05T06:03:03.342Z,97.60
2022-08-05T06:05:54.195Z,99.40
2022-08-05T06:08:32.686Z,96.20
2022-08-05T06:11:02.920Z,95.90
2022-08-05T06:13:40.734Z,97.50
2022-08-05T06:16:30.435Z,96.90
2022-08-05T06:19:01.109Z,97.00
2022-08-05T06:21:36.540Z,97.60
2022-08-05T06:24:12.194Z,97.10
2022-08-05T06:26:51.464Z,97.20
2022-08-05T06:29:46.559Z,98.30
2022-08-05T06:32:25.644Z,98.10
2022-08-05T06:34:57.259Z,98.30
2022-08-05T06:37:56.251Z,99.80
2022-08-05T06:40:18.415Z,98.90
2022-08-05T06:42:51.991Z,99.00
2022-08-05T06:45:44.885Z,98.70
2022-08-05T06:48:44.195Z,98.00
2022-08-05T06:51:00.196Z,96.60
2022-08-05T06:53:29.442Z,96.90
2022-08-05T06:55:58.626Z,96.10
2022-08-05T06:58:34.858Z,96.50
2022-08-05T07:01:07.144Z,96.60
2022-08-05T07:03:36.404Z,96.10
2022-08-05T07:06:13.877Z,95.00
2022-08-05T07:08:47.772Z,96.40
2022-08-05T07:11:22.460Z,95.80
2022-08-05T07:14:15.533Z,97.00
2022-08-05T07:17:59.793Z,93.40
2022-08-05T07:20:31.296Z,93.50
2022-08-05T07:22:30.335Z,91.00
2022-08-05T07:25:23.028Z,91.80
2022-08-05T07:27:58.635Z,88.50
2022-08-05T07:30:34.454Z,83.40
2022-08-05T07:33:05.137Z,81.70
2022-08-05T07:36:02.116Z,80.10
2022-08-05T07:38:33.758Z,77.00
2022-08-05T07:42:08.073Z,79.70
2022-08-05T07:43:56.626Z,77.60
2022-08-05T07:46:29.259Z,74.30
2022-08-05T07:49:05.446Z,72.90
2022-08-05T07:51:52.847Z,71.80
2022-08-05T07:54:33.353Z,73.00
2022-08-05T07:59:53.506Z,70.40
2022-08-05T08:02:31.158Z,71.30
2022-08-05T08:05:17.595Z,68.20
2022-08-05T08:08:00.230Z,69.10
2022-08-05T08:10:30.264Z,69.60
2022-08-05T08:12:59.189Z,68.70
2022-08-05T08:16:33.830Z,69.00
2022-08-05T08:18:20.906Z,68.60
2022-08-05T08:21:03.072Z,69.30
2022-08-05T08:26:29.604Z,68.50
2022-08-05T08:29:21.726Z,67.90
2022-08-05T08:31:49.602Z,65.90
2022-08-05T08:34:30.694Z,65.00
2022-08-05T08:37:05.170Z,64.20
2022-08-05T08:39:37.543Z,64.40
2022-08-05T08:42:32.505Z,63.10
2022-08-05T08:45:24.310Z,62.60
2022-08-05T08:48:12.670Z,62.40
2022-08-05T08:51:23.252Z,63.20
2022-08-05T08:53:44.225Z,61.80
2022-08-05T08:56:15.993Z,62.70
2022-08-05T08:58:47.942Z,60.30
2022-08-05T09:01:18.637Z,61.40
2022-08-05T09:03:54.486Z,63.40
2022-08-05T09:06:29.025Z,63.50
2022-08-05T09:09:01.030Z,64.40
2022-08-05T09:11:50.789Z,62.60
2022-08-05T09:14:58.375Z,61.60
2022-08-05T09:17:41.087Z,61.30
2022-08-05T09:20:02.558Z,61.00
2022-08-05T09:23:18.734Z,61.10
2022-08-05T09:26:02.077Z,60.70
2022-08-05T09:28:34.815Z,61.50
2022-08-05T09:31:22.366Z,59.40
2022-08-05T09:33:59.619Z,60.00
2022-08-05T09:36:45.687Z,60.20
2022-08-05T09:42:13.476Z,59.70
2022-08-05T09:44:49.300Z,57.80
2022-08-05T09:47:21.753Z,56.00
2022-08-05T09:50:00.541Z,55.50
2022-08-05T09:52:34.001Z,55.80
2022-08-05T09:55:57.947Z,56.60
2022-08-05T09:57:59.727Z,57.00
2022-08-05T10:05:32.906Z,54.90
2022-08-05T10:08:35.112Z,54.50
2022-08-05T10:10:55.009Z,56.00
2022-08-05T10:13:45.853Z,54.80
2022-08-05T10:16:42.068Z,56.40
2022-08-05T10:19:23.715Z,56.40
2022-08-05T10:22:15.723Z,55.60
2022-08-05T10:28:09.752Z,56.80
2022-08-05T10:33:14.776Z,54.50
2022-08-05T10:38:15.592Z,53.20
2022-08-05T10:40:58.076Z,53.20
2022-08-05T10:43:41.315Z,52.50
2022-08-05T10:46:13.497Z,53.30
2022-08-05T10:48:57.241Z,56.00
2022-08-05T10:51:28.835Z,52.10
2022-08-05T10:54:05.676Z,53.40
2022-08-05T10:56:52.906Z,51.00
2022-08-05T11:00:02.878Z,50.40
2022-08-05T11:05:11.034Z,52.30
2022-08-05T11:08:03.102Z,51.10
2022-08-05T11:10:50.184Z,50.90
2022-08-05T11:13:57.679Z,51.00
2022-08-05T11:16:33.890Z,50.10
2022-08-05T11:20:10.893Z,48.00
2022-08-05T11:22:42.339Z,49.60
2022-08-05T11:26:05.849Z,50.90
2022-08-05T11:28:47.774Z,51.00
2022-08-05T11:31:54.242Z,48.20
2022-08-05T11:34:38.429Z,48.00
2022-08-05T11:38:26.855Z,47.40
2022-08-05T11:40:02.912Z,49.70
2022-08-05T11:42:40.255Z,46.70
2022-08-05T11:45:14.298Z,50.50
2022-08-05T11:48:00.420Z,51.80
2022-08-05T11:50:29.463Z,47.40
2022-08-05T11:52:58.416Z,49.10
2022-08-05T11:55:31.682Z,48.40
2022-08-05T11:58:10.760Z,49.00
2022-08-05T12:00:44.143Z,49.10
2022-08-05T12:03:29.242Z,46.70
2022-08-05T12:06:02.964Z,46.70
2022-08-05T12:08:32.779Z,46.60
2022-08-05T12:11:06.033Z,47.60
2022-08-05T12:13:48.770Z,45.20
2022-08-05T12:16:26.930Z,50.20
2022-08-05T12:18:57.142Z,52.30
2022-08-05T12:21:30.342Z,47.40
2022-08-05T12:24:07.020Z,47.50
2022-08-05T12:26:38.925Z,44.50
2022-08-05T12:29:16.356Z,44.60
2022-08-05T12:31:53.105Z,45.00
2022-08-05T12:34:28.451Z,45.90
2022-08-05T12:37:00.118Z,45.50
2022-08-05T12:39:37.176Z,45.80
2022-08-05T12:42:14.750Z,45.60
2022-08-05T12:44:46.020Z,45.50
2022-08-05T12:47:28.813Z,45.30
2022-08-05T12:50:03.753Z,46.50
2022-08-05T12:52:39.407Z,46.30
2022-08-05T12:55:25.245Z,44.70
2022-08-05T12:58:48.494Z,44.40
2022-08-05T13:02:02.756Z,44.10
2022-08-05T13:03:41.749Z,44.90
2022-08-05T13:06:16.615Z,45.30
2022-08-05T13:08:51.674Z,44.60
2022-08-05T13:14:35.837Z,45.90
2022-08-05T13:19:52.222Z,44.80
2022-08-05T13:22:28.095Z,45.70
2022-08-05T13:25:00.841Z,46.10
2022-08-05T13:27:37.999Z,44.00
2022-08-05T13:30:32.944Z,44.50
2022-08-05T13:33:00.868Z,45.10
2022-08-05T13:35:43.250Z,43.50
2022-08-05T13:38:20.359Z,44.00
2022-08-05T13:41:00.354Z,43.50
2022-08-05T13:43:45.165Z,44.30
2022-08-05T13:46:30.629Z,44.60
2022-08-05T13:49:10.245Z,44.80
2022-08-05T13:54:12.549Z,43.90
2022-08-05T13:56:50.285Z,45.40
2022-08-05T13:59:24.626Z,47.50
2022-08-05T14:01:57.360Z,45.00
2022-08-05T14:04:50.036Z,47.40
2022-08-05T14:07:26.175Z,45.00
2022-08-05T14:10:18.343Z,44.70
2022-08-05T14:12:48.855Z,44.00
2022-08-05T14:16:09.217Z,44.30
2022-08-05T14:18:15.045Z,43.70
2022-08-05T14:20:46.858Z,43.60
2022-08-05T14:25:58.081Z,45.20
2022-08-05T14:28:28.379Z,45.00
2022-08-05T14:30:56.864Z,44.80
2022-08-05T14:33:25.183Z,43.80
2022-08-05T14:35:54.869Z,45.20
2022-08-05T14:38:31.592Z,47.60
2022-08-05T14:41:07.470Z,43.80
2022-08-05T14:43:57.541Z,44.10
2022-08-05T14:46:29.763Z,44.30
2022-08-05T14:49:06.938Z,43.80
2022-08-05T14:51:38.154Z,44.60
2022-08-05T14:54:27.771Z,43.70
2022-08-05T14:56:57.569Z,44.30
2022-08-05T14:59:29.356Z,44.80
2022-08-05T15:02:03.547Z,44.20
2022-08-05T15:04:43.812Z,44.00
2022-08-05T15:10:03.282Z,44.70
2022-08-05T15:12:57.691Z,45.30
2022-08-05T15:15:54.227Z,44.50
2022-08-05T15:18:10.388Z,45.40
2022-08-05T15:23:15.612Z,44.40
2022-08-05T15:25:52.335Z,45.50
2022-08-05T15:28:27.548Z,46.10
2022-08-05T15:30:56.780Z,44.80
2022-08-05T15:34:19.405Z,44.90
2022-08-05T15:36:17.317Z,45.00
2022-08-05T15:40:41.182Z,45.60
2022-08-05T15:41:55.824Z,45.30
2022-08-05T15:44:27.457Z,45.20
2022-08-05T15:46:56.477Z,45.40
2022-08-05T15:52:16.438Z,46.30
2022-08-05T15:54:45.422Z,45.20
2022-08-05T15:57:15.661Z,46.70
2022-08-05T16:02:19.662Z,45.30
2022-08-05T16:04:53.970Z,45.90
2022-08-05T16:07:22.768Z,46.10
2022-08-05T16:09:51.377Z,47.00
2022-08-05T16:12:22.692Z,47.70
2022-08-05T16:17:22.786Z,47.30
2022-08-05T16:25:05.339Z,48.50
2022-08-05T16:27:47.414Z,48.50
2022-08-05T16:33:01.622Z,48.60
2022-08-05T16:35:32.476Z,49.30
2022-08-05T16:40:59.536Z,50.10
2022-08-05T16:43:31.354Z,50.30
2022-08-05T16:46:23.606Z,49.70
2022-08-05T16:48:53.127Z,49.60
2022-08-05T16:51:24.191Z,49.00
2022-08-05T16:54:06.229Z,52.30
2022-08-05T16:56:44.544Z,50.50
2022-08-05T16:59:15.633Z,49.70
2022-08-05T17:01:54.391Z,49.50
2022-08-05T17:09:30.002Z,50.30
2022-08-05T17:11:59.395Z,51.70
2022-08-05T17:17:14.961Z,51.30
2022-08-05T17:19:46.156Z,51.10
2022-08-05T17:22:17.721Z,51.90
2022-08-05T17:24:57.754Z,51.60
2022-08-05T17:27:34.592Z,52.00
2022-08-05T17:30:18.870Z,51.80
2022-08-05T17:35:21.001Z,52.00
2022-08-05T17:37:50.601Z,53.70
2022-08-05T17:40:22.415Z,55.50
2022-08-05T17:45:24.892Z,56.20
2022-08-05T17:47:56.434Z,55.60
2022-08-05T17:50:28.392Z,56.60
2022-08-05T17:53:04.694Z,57.20
2022-08-05T17:58:14.525Z,57.90
2022-08-05T18:00:51.012Z,57.10
2022-08-05T18:03:56.097Z,59.00
2022-08-05T18:06:15.291Z,55.90
2022-08-05T18:08:52.131Z,55.40
2022-08-05T18:11:33.047Z,55.50
2022-08-05T18:14:07.527Z,57.50
2022-08-05T18:20:06.592Z,55.80
2022-08-05T18:22:54.872Z,56.00
2022-08-05T18:25:33.062Z,55.90
2022-08-05T18:28:05.039Z,55.60
2022-08-05T18:30:35.104Z,56.00
2022-08-05T18:35:59.713Z,55.60
2022-08-05T18:41:56.683Z,56.40
2022-08-05T18:43:52.052Z,56.80
2022-08-05T18:46:21.906Z,56.50
2022-08-05T18:48:56.475Z,56.50
2022-08-05T18:54:41.383Z,57.00
2022-08-05T18:57:24.040Z,57.00
2022-08-05T19:00:13.342Z,56.90
2022-08-05T19:02:49.951Z,57.20
2022-08-05T19:06:13.575Z,57.70
2022-08-05T19:16:03.493Z,59.50
2022-08-05T19:24:13.204Z,60.70
2022-08-05T19:26:54.934Z,61.00
2022-08-05T19:37:47.189Z,62.60
2022-08-05T19:40:24.311Z,62.30
2022-08-05T19:43:05.513Z,63.00
2022-08-05T19:45:37.428Z,62.90
2022-08-05T19:48:14.506Z,63.00
2022-08-05T19:50:45.354Z,63.40
2022-08-05T19:53:15.905Z,63.50
2022-08-05T19:56:13.955Z,63.50
2022-08-05T20:01:50.877Z,64.50
2022-08-05T20:04:19.432Z,64.90
2022-08-05T20:06:48.717Z,64.80
2022-08-05T20:09:17.599Z,65.00
2022-08-05T20:11:58.089Z,64.90
2022-08-05T20:15:03.135Z,65.20
2022-08-05T20:17:53.112Z,65.50
2022-08-05T20:20:31.671Z,66.30
2022-08-05T20:23:12.026Z,65.90
2022-08-05T20:26:16.391Z,66.80
2022-08-05T20:31:36.862Z,66.00
2022-08-05T20:34:12.697Z,66.40
2022-08-05T20:36:43.369Z,66.70
2022-08-05T20:39:16.574Z,66.30
2022-08-05T20:41:47.758Z,66.60
2022-08-05T20:44:30.385Z,67.20
2022-08-05T20:47:01.715Z,66.80
2022-08-05T20:49:39.387Z,66.90
2022-08-05T20:52:10.767Z,67.30
2022-08-05T20:54:55.591Z,67.50
2022-08-05T21:00:40.376Z,68.00
2022-08-05T21:03:08.450Z,68.00
2022-08-05T21:05:54.127Z,67.90
2022-08-05T21:08:28.184Z,68.60
2022-08-05T21:11:09.927Z,68.70
2022-08-05T21:13:48.497Z,68.20
2022-08-05T21:16:29.606Z,68.20
2022-08-05T21:19:01.058Z,69.20
2022-08-05T21:21:39.165Z,68.70
2022-08-05T21:24:15.466Z,68.80
2022-08-05T21:26:53.355Z,69.10
2022-08-05T21:29:26.564Z,69.70
2022-08-05T21:32:02.811Z,69.60
2022-08-05T21:34:33.129Z,69.10
2022-08-05T21:37:04.783Z,69.80
2022-08-05T21:39:34.550Z,70.30
2022-08-05T21:42:07.075Z,70.40
2022-08-05T21:44:55.433Z,71.20
2022-08-05T21:47:56.478Z,72.40
2022-08-05T21:50:15.181Z,72.50
2022-08-05T21:52:47.092Z,77.30
2022-08-05T21:55:17.105Z,79.20
2022-08-05T21:57:45.793Z,80.50
2022-08-05T22:07:59.340Z,95.90
2022-08-05T22:10:30.871Z,96.40
2022-08-05T22:16:02.492Z,99.90
2022-08-05T22:18:39.489Z,99.90
2022-08-05T22:21:18.905Z,99.90
2022-08-05T22:24:08.925Z,99.90
2022-08-05T22:26:59.871Z,99.90
2022-08-05T22:29:30.671Z,99.90
2022-08-05T22:32:02.744Z,99.90
2022-08-05T22:34:33.467Z,99.90
2022-08-05T22:37:03.925Z,99.90
2022-08-05T22:39:34.505Z,99.90
2022-08-05T22:42:12.485Z,99.90
2022-08-05T22:47:29.303Z,99.90
2022-08-05T22:50:20.636Z,99.90
2022-08-05T22:52:50.214Z,99.90
2022-08-05T22:55:22.108Z,99.90
2022-08-05T22:57:51.455Z,99.90
2022-08-05T23:02:53.439Z,99.90
2022-08-05T23:05:24.225Z,99.90
2022-08-05T23:07:53.253Z,99.90
2022-08-05T23:10:23.974Z,99.90
2022-08-05T23:12:55.544Z,99.90
2022-08-05T23:15:26.890Z,99.90
2022-08-05T23:18:01.572Z,99.90
2022-08-05T23:20:33.668Z,99.90
2022-08-05T23:23:08.346Z,99.90
2022-08-05T23:25:51.689Z,99.90
2022-08-05T23:28:23.842Z,99.90
2022-08-05T23:30:53.679Z,99.90
2022-08-05T23:36:14.026Z,99.90
2022-08-05T23:38:43.735Z,99.90
2022-08-05T23:41:13.011Z,99.90
2022-08-05T23:44:05.978Z,99.90
2022-08-05T23:46:30.522Z,99.90
2022-08-05T23:49:01.942Z,99.90
2022-08-05T23:52:05.524Z,99.90
2022-08-05T23:54:38.323Z,99.90
2022-08-05T23:57:08.893Z,99.90
